Time;durP1;ratioP1;P1;durP2;ratioP2;P2;SDS_P1;SDS_P2;PMS_P1;PMS_P2;Temp;Humidity;BMP_temperature;BMP_pressure;BME280_temperature;BME280_humidity;BME280_pressure;Samples;Min_cycle;Max_cycle;Signal;HPM_P1;HPM_P2
2023/06/25 00:04:01;;;;;;;16.23;13.90;;;;;;;;;;10032966;29;20106;-72
2023/06/25 00:20:19;;;;;;;16.13;14.45;;;;;;;;;;9937325;29;20441;-72
2023/06/25 00:25:16;;;;;;;16.70;15.02;;;;;;;;;;10044622;29;20055;-72
2023/06/25 00:30:13;;;;;;;16.48;14.70;;;;;;;;;;10066233;29;20565;-72
2023/06/25 00:35:10;;;;;;;16.08;14.13;;;;;;;;;;10068041;29;20047;-71
2023/06/25 00:40:08;;;;;;;15.40;13.90;;;;;;;;;;10071451;28;20457;-72
2023/06/25 00:45:06;;;;;;;17.60;14.88;;;;;;;;;;10067266;28;20877;-72
2023/06/25 00:55:22;;;;;;;17.30;15.70;;;;;;;;;;9974663;29;20471;-71
2023/06/25 01:01:10;;;;;;;17.58;15.77;;;;;;;;;;9860360;29;20050;-71
2023/06/25 01:06:29;;;;;;;17.65;14.88;;;;;;;;;;9862857;29;20133;-71
2023/06/25 01:12:00;;;;;;;19.08;17.02;;;;;;;;;;9859406;29;20045;-71
2023/06/25 01:16:57;;;;;;;17.27;15.57;;;;;;;;;;9875319;29;20156;-72
2023/06/25 01:21:53;;;;;;;17.85;16.05;;;;;;;;;;9877572;29;20480;-72
2023/06/25 01:26:54;;;;;;;19.42;17.42;;;;;;;;;;9876826;29;20084;-71
2023/06/25 01:31:51;;;;;;;19.05;16.95;;;;;;;;;;9875927;29;20061;-71
2023/06/25 01:36:51;;;;;;;20.60;18.40;;;;;;;;;;9912577;29;20555;-71
2023/06/25 01:41:48;;;;;;;23.23;19.23;;;;;;;;;;9949134;29;20053;-71
2023/06/25 01:46:44;;;;;;;19.38;17.38;;;;;;;;;;9950741;29;20511;-71
2023/06/25 01:51:41;;;;;;;19.27;17.33;;;;;;;;;;9940859;29;20420;-71
2023/06/25 01:56:37;;;;;;;21.13;18.48;;;;;;;;;;9935050;29;20064;-70
2023/06/25 02:01:34;;;;;;;20.08;17.95;;;;;;;;;;9950598;29;20120;-70
2023/06/25 02:06:30;;;;;;;20.08;17.75;;;;;;;;;;9954951;29;20041;-70
2023/06/25 02:11:26;;;;;;;21.45;17.45;;;;;;;;;;9956746;29;20419;-70
2023/06/25 02:16:23;;;;;;;19.20;17.20;;;;;;;;;;9947934;29;20044;-70
2023/06/25 02:21:19;;;;;;;19.52;17.52;;;;;;;;;;9957682;29;20059;-70
2023/06/25 02:26:16;;;;;;;19.88;17.85;;;;;;;;;;9950610;29;20052;-70
2023/06/25 02:31:12;;;;;;;21.73;17.67;;;;;;;;;;9961853;29;20096;-70
2023/06/25 02:36:08;;;;;;;22.55;19.00;;;;;;;;;;9945331;29;20049;-70
2023/06/25 02:41:05;;;;;;;20.80;18.13;;;;;;;;;;9955070;29;20044;-70
2023/06/25 02:46:01;;;;;;;21.73;19.42;;;;;;;;;;9940912;29;20462;-70
2023/06/25 02:50:57;;;;;;;20.70;18.25;;;;;;;;;;9954697;29;20067;-70
2023/06/25 02:55:54;;;;;;;20.55;18.45;;;;;;;;;;9943841;29;20057;-70
2023/06/25 03:00:50;;;;;;;21.15;18.95;;;;;;;;;;9955777;29;20048;-70
2023/06/25 03:05:46;;;;;;;22.70;19.17;;;;;;;;;;9959917;29;20078;-70
2023/06/25 03:10:43;;;;;;;20.20;18.23;;;;;;;;;;9959584;29;20104;-70
2023/06/25 03:15:39;;;;;;;24.52;20.13;;;;;;;;;;9957832;29;20056;-70
2023/06/25 03:20:35;;;;;;;22.20;20.00;;;;;;;;;;9956062;29;20109;-69
2023/06/25 03:25:32;;;;;;;22.55;20.35;;;;;;;;;;9963878;29;20566;-69
2023/06/25 03:30:28;;;;;;;20.20;18.30;;;;;;;;;;9964506;29;20418;-69
2023/06/25 03:35:24;;;;;;;21.45;19.33;;;;;;;;;;9959446;29;20045;-70
2023/06/25 03:40:21;;;;;;;20.15;18.15;;;;;;;;;;9955279;29;20048;-68
2023/06/25 03:45:17;;;;;;;20.75;18.63;;;;;;;;;;9914718;29;21326;-68
2023/06/25 03:50:13;;;;;;;21.65;19.63;;;;;;;;;;9915445;29;20045;-71
2023/06/25 03:55:10;;;;;;;19.88;17.92;;;;;;;;;;9915584;29;20045;-71
2023/06/25 04:00:06;;;;;;;21.67;19.30;;;;;;;;;;9956048;29;20415;-71
2023/06/25 04:05:03;;;;;;;21.63;19.25;;;;;;;;;;9910982;29;20060;-69
2023/06/25 04:10:00;;;;;;;22.55;20.15;;;;;;;;;;9957189;29;20052;-69
2023/06/25 04:14:57;;;;;;;20.77;18.60;;;;;;;;;;9950522;29;20057;-69
2023/06/25 04:19:53;;;;;;;21.67;19.48;;;;;;;;;;9946018;29;20049;-69
2023/06/25 04:24:49;;;;;;;22.25;20.08;;;;;;;;;;9938773;29;20543;-70
2023/06/25 04:29:46;;;;;;;23.60;20.35;;;;;;;;;;9955115;29;20538;-68
2023/06/25 04:34:42;;;;;;;22.65;20.35;;;;;;;;;;9947573;29;20054;-68
2023/06/25 04:39:39;;;;;;;23.45;21.02;;;;;;;;;;9949497;29;20100;-67
2023/06/25 04:44:35;;;;;;;23.48;20.98;;;;;;;;;;9947541;29;20115;-68
2023/06/25 04:49:32;;;;;;;22.70;20.30;;;;;;;;;;9951552;29;20052;-68
2023/06/25 04:54:28;;;;;;;22.02;19.77;;;;;;;;;;9954021;29;20041;-67
2023/06/25 04:59:24;;;;;;;22.30;19.95;;;;;;;;;;9955904;29;20048;-68
2023/06/25 05:04:21;;;;;;;22.05;19.35;;;;;;;;;;9949035;29;20068;-68
2023/06/25 05:09:17;;;;;;;21.75;19.58;;;;;;;;;;9949671;29;20533;-67
2023/06/25 05:14:13;;;;;;;19.65;17.58;;;;;;;;;;9957157;29;20072;-67
2023/06/25 05:19:10;;;;;;;19.33;17.25;;;;;;;;;;9946677;29;20041;-68
2023/06/25 05:24:06;;;;;;;18.67;16.70;;;;;;;;;;9953271;29;20064;-68
2023/06/25 05:29:03;;;;;;;18.33;16.52;;;;;;;;;;9948038;29;20044;-68
2023/06/25 05:33:59;;;;;;;17.77;16.02;;;;;;;;;;9948994;29;20041;-68
2023/06/25 05:38:55;;;;;;;17.73;15.95;;;;;;;;;;9957413;29;20056;-67
2023/06/25 05:43:52;;;;;;;17.42;15.65;;;;;;;;;;9945005;29;20506;-68
2023/06/25 05:48:48;;;;;;;16.15;14.13;;;;;;;;;;9915066;29;20087;-68
2023/06/25 05:53:45;;;;;;;17.52;15.77;;;;;;;;;;9936890;29;20068;-68
2023/06/25 05:58:42;;;;;;;15.40;13.88;;;;;;;;;;9947558;29;20049;-68
2023/06/25 06:03:38;;;;;;;14.60;13.20;;;;;;;;;;9942547;29;20120;-68
2023/06/25 06:08:35;;;;;;;13.27;12.05;;;;;;;;;;9947137;29;20072;-67
2023/06/25 06:13:31;;;;;;;13.73;12.52;;;;;;;;;;9947903;29;20120;-68
2023/06/25 06:18:27;;;;;;;13.32;11.98;;;;;;;;;;9932570;29;20041;-68
2023/06/25 06:23:24;;;;;;;12.93;11.65;;;;;;;;;;9949871;29;20057;-68
2023/06/25 06:28:20;;;;;;;13.20;12.00;;;;;;;;;;9952372;29;20056;-68
2023/06/25 06:33:16;;;;;;;11.60;10.45;;;;;;;;;;9946471;29;20631;-68
2023/06/25 06:38:13;;;;;;;12.77;11.57;;;;;;;;;;9950580;29;20060;-67
2023/06/25 06:43:09;;;;;;;11.60;10.57;;;;;;;;;;9949349;29;20045;-68
2023/06/25 06:48:05;;;;;;;12.75;11.45;;;;;;;;;;9953410;29;20055;-68
2023/06/25 06:53:02;;;;;;;11.40;10.40;;;;;;;;;;9960917;29;20041;-68
2023/06/25 06:57:58;;;;;;;11.70;10.70;;;;;;;;;;9930783;29;20049;-69
2023/06/25 07:02:56;;;;;;;11.35;10.35;;;;;;;;;;9934716;29;20490;-69
2023/06/25 07:07:53;;;;;;;12.25;10.13;;;;;;;;;;9948545;29;20063;-69
2023/06/25 07:12:49;;;;;;;11.32;10.32;;;;;;;;;;9942240;29;20104;-68
2023/06/25 07:17:46;;;;;;;10.95;9.85;;;;;;;;;;9950002;29;20076;-68
2023/06/25 07:22:43;;;;;;;13.48;10.65;;;;;;;;;;9951175;29;20048;-67
2023/06/25 07:27:40;;;;;;;10.95;10.05;;;;;;;;;;9937991;29;20092;-70
2023/06/25 07:32:36;;;;;;;12.23;11.02;;;;;;;;;;9951020;29;20144;-69
2023/06/25 07:37:32;;;;;;;11.65;10.57;;;;;;;;;;9947536;29;20587;-68
2023/06/25 07:42:32;;;;;;;12.23;11.07;;;;;;;;;;9959870;29;20068;-68
2023/06/25 07:47:29;;;;;;;11.07;10.07;;;;;;;;;;9946731;29;20053;-68
2023/06/25 07:52:25;;;;;;;11.98;10.77;;;;;;;;;;9937759;29;20057;-68
2023/06/25 07:57:22;;;;;;;12.35;10.55;;;;;;;;;;9950704;29;20048;-69
2023/06/25 08:02:19;;;;;;;11.73;10.70;;;;;;;;;;9951394;29;20096;-68
2023/06/25 08:07:15;;;;;;;11.77;10.57;;;;;;;;;;9950170;29;20040;-68
2023/06/25 08:12:14;;;;;;;12.25;11.13;;;;;;;;;;9955285;29;20044;-69
2023/06/25 08:17:11;;;;;;;11.60;10.50;;;;;;;;;;9950623;29;20045;-67
2023/06/25 08:22:07;;;;;;;12.15;10.88;;;;;;;;;;9954838;29;20504;-67
2023/06/25 08:27:04;;;;;;;12.57;11.38;;;;;;;;;;9948153;29;20471;-67
2023/06/25 08:32:00;;;;;;;11.75;10.73;;;;;;;;;;9945702;29;20120;-68
2023/06/25 08:36:56;;;;;;;11.80;10.68;;;;;;;;;;9950621;29;20049;-67
2023/06/25 08:41:53;;;;;;;12.60;11.45;;;;;;;;;;9942123;29;20045;-68
2023/06/25 08:46:49;;;;;;;12.57;11.32;;;;;;;;;;9949145;29;20049;-69
2023/06/25 08:51:46;;;;;;;12.90;11.63;;;;;;;;;;9928694;29;20063;-70
2023/06/25 08:56:42;;;;;;;12.25;11.02;;;;;;;;;;9922257;29;20048;-72
2023/06/25 09:01:39;;;;;;;12.82;11.73;;;;;;;;;;9945130;29;20471;-72
2023/06/25 09:06:39;;;;;;;13.57;12.25;;;;;;;;;;9961129;29;20064;-72
2023/06/25 09:11:54;;;;;;;12.57;11.48;;;;;;;;;;9940101;29;20123;-72
2023/06/25 09:16:50;;;;;;;14.38;12.98;;;;;;;;;;9948420;29;20055;-71
2023/06/25 09:21:48;;;;;;;13.55;12.25;;;;;;;;;;9954139;29;20423;-70
2023/06/25 09:26:48;;;;;;;13.00;11.90;;;;;;;;;;9952499;29;20053;-70
2023/06/25 09:31:45;;;;;;;13.45;12.18;;;;;;;;;;9942864;29;20045;-73
2023/06/25 09:36:42;;;;;;;12.60;11.40;;;;;;;;;;9946120;29;20401;-73
2023/06/25 09:41:40;;;;;;;12.30;11.05;;;;;;;;;;9944459;29;20784;-73
2023/06/25 09:46:38;;;;;;;12.05;10.95;;;;;;;;;;9948636;29;20060;-73
2023/06/25 09:51:48;;;;;;;12.80;11.65;;;;;;;;;;9943649;29;20053;-72
2023/06/25 09:56:47;;;;;;;12.93;11.73;;;;;;;;;;9924805;29;20419;-72
2023/06/25 10:01:44;;;;;;;14.13;12.77;;;;;;;;;;9951074;29;20058;-72
2023/06/25 10:06:41;;;;;;;12.20;11.07;;;;;;;;;;9932531;29;20040;-72
2023/06/25 10:11:48;;;;;;;12.85;11.75;;;;;;;;;;9944832;29;20048;-72
2023/06/25 10:16:54;;;;;;;12.98;11.88;;;;;;;;;;9935550;29;20071;-72
2023/06/25 10:22:17;;;;;;;12.45;11.32;;;;;;;;;;9938489;29;20049;-73
2023/06/25 10:27:19;;;;;;;11.88;10.77;;;;;;;;;;9933476;29;20286;-73
2023/06/25 10:32:19;;;;;;;10.73;9.77;;;;;;;;;;9932764;29;20064;-73
2023/06/25 10:37:17;;;;;;;10.85;9.85;;;;;;;;;;9944651;29;20427;-73
2023/06/25 10:42:13;;;;;;;11.88;10.75;;;;;;;;;;9945240;29;20045;-73
2023/06/25 10:47:10;;;;;;;11.88;10.70;;;;;;;;;;9921997;29;20055;-72
2023/06/25 10:52:07;;;;;;;11.02;9.93;;;;;;;;;;9944757;29;20051;-72
2023/06/25 10:57:07;;;;;;;11.30;10.10;;;;;;;;;;9942474;29;20151;-72
2023/06/25 11:02:14;;;;;;;10.45;9.55;;;;;;;;;;9949912;29;20048;-72
2023/06/25 11:07:11;;;;;;;12.20;11.20;;;;;;;;;;9944751;29;20051;-73
2023/06/25 11:12:08;;;;;;;11.35;10.35;;;;;;;;;;9952123;29;20135;-72
2023/06/25 11:17:05;;;;;;;11.65;10.65;;;;;;;;;;9938702;29;20044;-72
2023/06/25 11:22:05;;;;;;;12.68;11.38;;;;;;;;;;9949401;29;20139;-71
2023/06/25 11:27:02;;;;;;;11.70;10.70;;;;;;;;;;9943362;29;20049;-71
2023/06/25 11:31:58;;;;;;;10.90;10.00;;;;;;;;;;9961567;29;20053;-71
2023/06/25 11:36:55;;;;;;;10.65;9.75;;;;;;;;;;9948643;29;20135;-72
2023/06/25 11:41:51;;;;;;;10.02;9.13;;;;;;;;;;9951419;29;20678;-72
2023/06/25 11:46:51;;;;;;;11.23;10.20;;;;;;;;;;9943087;29;20053;-72
2023/06/25 11:51:52;;;;;;;10.18;9.38;;;;;;;;;;9950835;29;20104;-72
2023/06/25 11:56:48;;;;;;;10.98;10.02;;;;;;;;;;9945378;29;20064;-72
2023/06/25 12:01:45;;;;;;;10.48;9.48;;;;;;;;;;9938066;29;20163;-72
2023/06/25 12:06:41;;;;;;;11.15;10.02;;;;;;;;;;9955452;29;20120;-72
2023/06/25 12:11:38;;;;;;;10.27;9.32;;;;;;;;;;9958968;29;20075;-72
2023/06/25 12:16:34;;;;;;;10.32;9.32;;;;;;;;;;9959050;29;20056;-72
2023/06/25 12:21:31;;;;;;;9.25;8.38;;;;;;;;;;9963173;29;20056;-72
2023/06/25 12:26:27;;;;;;;9.80;8.90;;;;;;;;;;9953313;29;20100;-73
2023/06/25 12:31:23;;;;;;;10.05;9.07;;;;;;;;;;9958496;29;20503;-73
2023/06/25 12:36:20;;;;;;;8.82;8.13;;;;;;;;;;9955255;29;20052;-73
2023/06/25 12:41:17;;;;;;;10.75;9.80;;;;;;;;;;9941378;29;20764;-72
2023/06/25 12:46:13;;;;;;;9.80;8.90;;;;;;;;;;9956728;29;20068;-72
2023/06/25 12:51:10;;;;;;;9.93;9.00;;;;;;;;;;9931183;29;20100;-72
2023/06/25 12:56:06;;;;;;;9.40;8.50;;;;;;;;;;9952659;29;20044;-72
2023/06/25 13:01:02;;;;;;;10.60;9.60;;;;;;;;;;9948840;29;20052;-72
2023/06/25 13:06:03;;;;;;;10.30;9.25;;;;;;;;;;9953772;29;20132;-72
2023/06/25 13:10:59;;;;;;;9.55;8.75;;;;;;;;;;9956921;29;20055;-72
2023/06/25 13:15:56;;;;;;;9.80;8.82;;;;;;;;;;9950360;29;20081;-73
2023/06/25 13:20:52;;;;;;;8.93;8.13;;;;;;;;;;9955168;29;20083;-73
2023/06/25 13:25:49;;;;;;;8.60;7.90;;;;;;;;;;9944783;29;20131;-72
2023/06/25 13:30:45;;;;;;;10.05;9.02;;;;;;;;;;9946933;29;20159;-72
2023/06/25 13:35:42;;;;;;;9.48;8.77;;;;;;;;;;9948881;29;20511;-72
2023/06/25 13:40:38;;;;;;;9.45;8.55;;;;;;;;;;9952110;29;20107;-72
2023/06/25 13:45:35;;;;;;;9.63;8.82;;;;;;;;;;9946741;29;20056;-72
2023/06/25 13:50:31;;;;;;;9.48;8.68;;;;;;;;;;9954588;29;20072;-73
2023/06/25 13:55:28;;;;;;;9.00;8.20;;;;;;;;;;9949030;29;20044;-73
2023/06/25 14:00:25;;;;;;;9.82;9.02;;;;;;;;;;9928875;29;20053;-73
2023/06/25 14:05:21;;;;;;;9.65;8.85;;;;;;;;;;9952832;29;20836;-74
2023/06/25 14:10:17;;;;;;;9.68;8.77;;;;;;;;;;9955324;29;20052;-73
2023/06/25 14:15:14;;;;;;;9.02;8.30;;;;;;;;;;9947367;29;20527;-73
2023/06/25 14:20:10;;;;;;;9.73;8.80;;;;;;;;;;9951781;29;20051;-74
2023/06/25 14:25:07;;;;;;;9.48;8.68;;;;;;;;;;9940781;29;20130;-73
2023/06/25 14:30:03;;;;;;;10.43;9.38;;;;;;;;;;9945068;29;20483;-72
2023/06/25 14:35:03;;;;;;;9.52;8.73;;;;;;;;;;9949653;29;20507;-71
2023/06/25 14:40:01;;;;;;;10.05;9.15;;;;;;;;;;9917189;29;20101;-71
2023/06/25 14:44:58;;;;;;;9.63;8.75;;;;;;;;;;9942225;29;20053;-71
2023/06/25 14:49:54;;;;;;;9.80;9.00;;;;;;;;;;9953484;29;20057;-71
2023/06/25 14:54:51;;;;;;;9.93;9.02;;;;;;;;;;9943916;29;20433;-70
2023/06/25 14:59:47;;;;;;;9.55;8.80;;;;;;;;;;9949838;29;20076;-70
2023/06/25 15:04:48;;;;;;;9.55;8.75;;;;;;;;;;9948286;29;20075;-71
2023/06/25 15:09:45;;;;;;;;;;;;;;;;;;9962687;29;20056;-70
2023/06/25 15:14:41;;;;;;;9.85;9.00;;;;;;;;;;9953221;29;20323;-71
2023/06/25 15:19:40;;;;;;;9.32;8.43;;;;;;;;;;9949533;29;20052;-71
2023/06/25 15:24:37;;;;;;;10.52;9.43;;;;;;;;;;9915730;29;20061;-71
2023/06/25 15:29:33;;;;;;;9.85;8.98;;;;;;;;;;9922412;29;20586;-71
2023/06/25 15:34:30;;;;;;;9.85;8.90;;;;;;;;;;9916821;29;20045;-71
2023/06/25 15:39:27;;;;;;;9.93;8.93;;;;;;;;;;9921142;29;20535;-71
2023/06/25 15:44:24;;;;;;;9.93;9.02;;;;;;;;;;9916056;29;20052;-71
2023/06/25 15:49:20;;;;;;;10.15;9.20;;;;;;;;;;9920238;29;20480;-71
2023/06/25 15:54:16;;;;;;;10.55;9.65;;;;;;;;;;9918008;29;20519;-71
2023/06/25 15:59:21;;;;;;;10.25;9.35;;;;;;;;;;9911693;29;20049;-71
2023/06/25 16:04:18;;;;;;;10.23;9.23;;;;;;;;;;9921218;29;20077;-70
2023/06/25 16:09:14;;;;;;;10.15;9.32;;;;;;;;;;9952297;29;20060;-70
2023/06/25 16:14:10;;;;;;;9.88;9.07;;;;;;;;;;9951940;29;20044;-70
2023/06/25 16:19:07;;;;;;;10.35;9.18;;;;;;;;;;9958931;29;20052;-70
2023/06/25 16:24:23;;;;;;;10.38;9.38;;;;;;;;;;9948837;29;20048;-71
2023/06/25 16:29:26;;;;;;;10.05;9.15;;;;;;;;;;9954225;29;20072;-72
2023/06/25 16:34:22;;;;;;;10.18;9.25;;;;;;;;;;9953006;29;20059;-70
2023/06/25 16:39:19;;;;;;;10.30;9.40;;;;;;;;;;9954346;29;20083;-70
2023/06/25 16:44:15;;;;;;;10.85;9.75;;;;;;;;;;9955333;29;20091;-70
2023/06/25 16:49:14;;;;;;;9.88;9.07;;;;;;;;;;9957058;29;20495;-70
2023/06/25 16:54:11;;;;;;;9.13;8.35;;;;;;;;;;9940488;29;20066;-70
2023/06/25 16:59:07;;;;;;;17.00;9.82;;;;;;;;;;9952262;29;20057;-70
2023/06/25 17:04:03;;;;;;;9.55;8.75;;;;;;;;;;9945111;29;20068;-71
2023/06/25 17:09:00;;;;;;;9.90;9.10;;;;;;;;;;9924065;29;20060;-69
2023/06/25 17:13:56;;;;;;;9.02;8.23;;;;;;;;;;9953388;29;20049;-69
2023/06/25 17:18:54;;;;;;;9.90;9.00;;;;;;;;;;9932564;29;20135;-69
2023/06/25 17:23:50;;;;;;;9.88;8.93;;;;;;;;;;9938307;29;20045;-69
2023/06/25 17:28:47;;;;;;;9.57;8.32;;;;;;;;;;9937877;29;20151;-69
2023/06/25 17:33:43;;;;;;;9.95;8.88;;;;;;;;;;9936969;29;20050;-70
2023/06/25 17:38:40;;;;;;;9.88;9.02;;;;;;;;;;9933142;29;20041;-70
2023/06/25 17:43:36;;;;;;;9.68;8.85;;;;;;;;;;9940378;29;20044;-69
2023/06/25 17:48:33;;;;;;;9.52;8.63;;;;;;;;;;9944989;29;20594;-70
2023/06/25 17:53:34;;;;;;;9.85;8.93;;;;;;;;;;9926700;29;20045;-69
2023/06/25 17:58:31;;;;;;;10.15;9.18;;;;;;;;;;9948669;29;20079;-69
2023/06/25 18:03:28;;;;;;;9.85;9.02;;;;;;;;;;9948229;29;20526;-69
2023/06/25 18:08:24;;;;;;;9.52;8.73;;;;;;;;;;9950788;29;20052;-70
2023/06/25 18:13:21;;;;;;;10.60;9.68;;;;;;;;;;9937696;29;20040;-69
2023/06/25 18:18:18;;;;;;;11.07;9.98;;;;;;;;;;9940675;29;20048;-70
2023/06/25 18:23:15;;;;;;;9.35;8.55;;;;;;;;;;9946648;29;20099;-70
2023/06/25 18:28:12;;;;;;;10.18;9.35;;;;;;;;;;9948423;29;20143;-70
2023/06/25 18:33:08;;;;;;;10.65;9.55;;;;;;;;;;9947163;29;20135;-69
2023/06/25 18:38:10;;;;;;;11.20;10.07;;;;;;;;;;9937652;29;20069;-70
2023/06/25 18:43:06;;;;;;;11.07;9.88;;;;;;;;;;9960244;29;20053;-69
2023/06/25 18:48:03;;;;;;;11.30;10.15;;;;;;;;;;9952264;29;20052;-70
2023/06/25 18:52:59;;;;;;;10.98;9.98;;;;;;;;;;9934299;29;20118;-70
2023/06/25 18:57:56;;;;;;;10.70;9.70;;;;;;;;;;9940026;29;20544;-70
2023/06/25 19:02:52;;;;;;;10.57;9.68;;;;;;;;;;9937819;29;20072;-70
2023/06/25 19:07:49;;;;;;;10.23;9.32;;;;;;;;;;9950342;29;20515;-70
2023/06/25 19:12:45;;;;;;;10.45;9.48;;;;;;;;;;9961466;29;20053;-70
2023/06/25 19:17:42;;;;;;;11.65;10.75;;;;;;;;;;9951215;29;20071;-69
2023/06/25 19:22:40;;;;;;;12.02;10.88;;;;;;;;;;9933830;29;20064;-70
2023/06/25 19:27:57;;;;;;;11.57;10.48;;;;;;;;;;9948102;29;20519;-70
2023/06/25 19:32:53;;;;;;;11.65;10.60;;;;;;;;;;9952332;29;20210;-70
2023/06/25 19:37:50;;;;;;;11.70;10.77;;;;;;;;;;9954451;29;20181;-70
2023/06/25 19:42:46;;;;;;;12.15;10.90;;;;;;;;;;9941240;29;20135;-72
2023/06/25 19:47:42;;;;;;;10.68;9.77;;;;;;;;;;9944436;29;20049;-69
2023/06/25 19:52:39;;;;;;;13.50;12.23;;;;;;;;;;9955334;29;20049;-68
2023/06/25 19:57:36;;;;;;;13.07;11.88;;;;;;;;;;9945826;29;20053;-67
2023/06/25 20:02:32;;;;;;;12.13;11.13;;;;;;;;;;9954474;29;20099;-67
2023/06/25 20:07:29;;;;;;;12.88;11.77;;;;;;;;;;9952460;29;20419;-67
2023/06/25 20:12:28;;;;;;;12.77;11.75;;;;;;;;;;9957390;29;20044;-67
2023/06/25 20:17:26;;;;;;;12.52;11.45;;;;;;;;;;9948961;29;20059;-67
2023/06/25 20:22:23;;;;;;;11.85;10.82;;;;;;;;;;9954908;29;20538;-69
2023/06/25 20:27:19;;;;;;;13.75;12.55;;;;;;;;;;9950636;29;20052;-69
2023/06/25 20:32:15;;;;;;;12.80;11.70;;;;;;;;;;9951624;29;20056;-69
2023/06/25 20:37:12;;;;;;;13.82;12.52;;;;;;;;;;9949493;29;20057;-71
2023/06/25 20:42:08;;;;;;;13.15;11.95;;;;;;;;;;9952188;29;20467;-71
2023/06/25 20:47:05;;;;;;;13.85;12.57;;;;;;;;;;9955681;29;20740;-68
2023/06/25 20:52:01;;;;;;;13.05;11.80;;;;;;;;;;9948834;29;20440;-70
2023/06/25 20:56:57;;;;;;;12.82;11.55;;;;;;;;;;9948878;29;20044;-70
2023/06/25 21:01:54;;;;;;;13.23;12.02;;;;;;;;;;9950463;29;20138;-70
2023/06/25 21:06:50;;;;;;;14.23;12.98;;;;;;;;;;9949856;29;20076;-70
2023/06/25 21:11:46;;;;;;;14.73;13.43;;;;;;;;;;9947765;29;20135;-70
2023/06/25 21:16:44;;;;;;;13.43;12.32;;;;;;;;;;9953530;29;20041;-67
2023/06/25 21:21:41;;;;;;;13.43;12.32;;;;;;;;;;9940432;29;20139;-68
2023/06/25 21:26:37;;;;;;;13.38;12.20;;;;;;;;;;9947261;29;20085;-69
2023/06/25 21:31:33;;;;;;;14.43;13.13;;;;;;;;;;9953378;29;20056;-69
2023/06/25 21:36:30;;;;;;;14.23;13.02;;;;;;;;;;9953064;29;20163;-69
2023/06/25 21:41:26;;;;;;;14.10;12.90;;;;;;;;;;9949630;29;20053;-68
2023/06/25 21:46:22;;;;;;;14.25;13.05;;;;;;;;;;9947141;29;20077;-69
2023/06/25 21:51:18;;;;;;;14.07;12.70;;;;;;;;;;9949673;29;20579;-68
2023/06/25 21:56:15;;;;;;;14.48;13.18;;;;;;;;;;9947729;29;20052;-68
2023/06/25 22:01:11;;;;;;;13.98;12.68;;;;;;;;;;9953272;29;20080;-68
2023/06/25 22:06:08;;;;;;;14.10;12.90;;;;;;;;;;9947300;29;20078;-69
2023/06/25 22:11:04;;;;;;;14.43;13.13;;;;;;;;;;9949167;29;20163;-68
2023/06/25 22:16:00;;;;;;;14.75;13.48;;;;;;;;;;9946875;29;20084;-67
2023/06/25 22:20:57;;;;;;;14.02;12.68;;;;;;;;;;9944824;29;20539;-68
2023/06/25 22:25:53;;;;;;;15.50;14.13;;;;;;;;;;9949749;29;20468;-66
2023/06/25 22:30:49;;;;;;;15.05;13.75;;;;;;;;;;9949017;29;20052;-70
2023/06/25 22:35:46;;;;;;;16.02;12.65;;;;;;;;;;9939168;29;20085;-67
2023/06/25 22:40:43;;;;;;;15.18;13.85;;;;;;;;;;9947022;29;20052;-67
2023/06/25 22:45:39;;;;;;;13.75;12.65;;;;;;;;;;9933257;29;20460;-68
2023/06/25 22:50:35;;;;;;;13.55;12.35;;;;;;;;;;9946679;29;20060;-68
2023/06/25 22:55:32;;;;;;;14.35;13.02;;;;;;;;;;9948652;29;20048;-68
2023/06/25 23:00:28;;;;;;;14.32;13.13;;;;;;;;;;9943547;29;20052;-68
2023/06/25 23:05:25;;;;;;;14.40;12.98;;;;;;;;;;9940357;29;20056;-68
2023/06/25 23:10:21;;;;;;;13.80;12.60;;;;;;;;;;9947151;29;20148;-66
2023/06/25 23:15:17;;;;;;;14.63;13.32;;;;;;;;;;9944661;29;20680;-69
2023/06/25 23:20:17;;;;;;;14.60;13.32;;;;;;;;;;9951770;29;20460;-68
2023/06/25 23:25:16;;;;;;;14.35;13.15;;;;;;;;;;9954978;29;20055;-68
2023/06/25 23:30:14;;;;;;;14.83;13.63;;;;;;;;;;9948258;29;20419;-67
2023/06/25 23:35:11;;;;;;;14.45;13.23;;;;;;;;;;9946655;29;20136;-67
2023/06/25 23:40:09;;;;;;;15.82;14.43;;;;;;;;;;9959407;29;20111;-68
2023/06/25 23:45:05;;;;;;;15.98;14.63;;;;;;;;;;9957015;29;20056;-69
2023/06/25 23:50:02;;;;;;;14.73;13.45;;;;;;;;;;9915672;29;20049;-70
2023/06/25 23:54:58;;;;;;;16.73;15.32;;;;;;;;;;9912564;29;20304;-69
2023/06/25 23:59:54;;;;;;;15.23;13.85;;;;;;;;;;9915476;29;20041;-67
